createdAt,value
2019-01-26T04:01:54.036Z,21.33
2019-01-26T04:04:41.925Z,20.53
2019-01-26T04:07:29.838Z,22.90
2019-01-26T04:10:17.726Z,19.40
2019-01-26T04:13:05.653Z,22.07
2019-01-26T04:15:53.538Z,20.30
2019-01-26T04:18:41.449Z,18.73
2019-01-26T04:21:29.339Z,18.90
2019-01-26T04:24:17.253Z,19.07
2019-01-26T04:27:05.165Z,19.57
2019-01-26T04:29:53.066Z,18.50
2019-01-26T04:32:40.949Z,20.03
2019-01-26T04:35:28.865Z,18.37
2019-01-26T04:38:16.756Z,18.13
2019-01-26T04:41:04.672Z,18.57
2019-01-26T04:43:52.554Z,17.87
2019-01-26T04:46:40.479Z,17.20
2019-01-26T04:49:28.369Z,16.90
2019-01-26T04:52:16.285Z,16.37
2019-01-26T04:55:04.552Z,16.27
2019-01-26T04:57:44.842Z,15.13
2019-01-26T05:00:24.341Z,14.50
2019-01-26T05:03:12.249Z,16.17
2019-01-26T05:06:00.143Z,17.20
2019-01-26T05:08:48.054Z,15.63
2019-01-26T05:11:35.942Z,14.57
2019-01-26T05:14:23.868Z,15.90
2019-01-26T05:17:11.742Z,14.37
2019-01-26T05:19:59.661Z,13.50
2019-01-26T05:22:47.768Z,14.23
2019-01-26T05:25:35.685Z,14.73
2019-01-26T05:28:23.585Z,14.07
2019-01-26T05:31:11.494Z,14.00
2019-01-26T05:33:59.380Z,14.27
2019-01-26T05:36:47.302Z,14.50
2019-01-26T05:39:35.198Z,14.83
2019-01-26T05:42:23.106Z,13.53
2019-01-26T05:48:20.830Z,14.67
2019-01-26T05:51:08.716Z,14.40
2019-01-26T05:53:56.634Z,15.53
2019-01-26T05:56:44.525Z,15.70
2019-01-26T05:59:23.209Z,14.57
2019-01-26T06:02:11.099Z,15.43
2019-01-26T06:04:59.005Z,16.00
2019-01-26T06:07:46.901Z,15.33
2019-01-26T06:10:34.809Z,15.00
2019-01-26T06:13:22.714Z,15.97
2019-01-26T06:16:10.618Z,15.10
2019-01-26T06:18:58.753Z,15.20
2019-01-26T06:21:46.666Z,15.73
2019-01-26T06:24:34.553Z,15.87
2019-01-26T06:27:22.472Z,15.97
2019-01-26T06:30:12.013Z,15.33
2019-01-26T06:32:59.922Z,15.67
2019-01-26T06:35:47.805Z,16.10
2019-01-26T06:38:35.722Z,16.27
2019-01-26T06:41:23.613Z,14.83
2019-01-26T06:44:11.537Z,15.73
2019-01-26T06:46:59.420Z,16.03
2019-01-26T06:49:47.334Z,14.37
2019-01-26T06:52:35.426Z,16.73
2019-01-26T06:55:24.920Z,16.10
2019-01-26T06:58:12.801Z,15.60
2019-01-26T07:00:51.926Z,16.10
2019-01-26T07:03:39.793Z,16.73
2019-01-26T07:06:32.973Z,16.57
2019-01-26T07:09:21.037Z,14.43
2019-01-26T07:12:08.930Z,14.83
2019-01-26T07:14:56.981Z,13.97
2019-01-26T07:18:09.344Z,15.67
2019-01-26T07:20:53.541Z,15.30
2019-01-26T07:23:41.701Z,15.40
2019-01-26T07:26:29.762Z,14.37
2019-01-26T07:29:17.671Z,15.87
2019-01-26T07:32:05.893Z,14.90
2019-01-26T07:34:53.793Z,14.17
2019-01-26T07:37:41.949Z,16.63
2019-01-26T07:40:29.917Z,14.37
2019-01-26T07:43:17.828Z,14.93
2019-01-26T07:46:05.738Z,14.83
2019-01-26T07:48:53.621Z,14.00
2019-01-26T07:51:41.535Z,15.70
2019-01-26T07:54:29.641Z,15.20
2019-01-26T07:57:17.618Z,14.33
2019-01-26T08:00:06.569Z,15.37
2019-01-26T08:02:45.026Z,15.03
2019-01-26T08:05:32.913Z,14.50
2019-01-26T08:08:20.845Z,16.53
2019-01-26T08:11:08.733Z,14.57
2019-01-26T08:13:56.646Z,16.47
2019-01-26T08:16:44.538Z,15.33
2019-01-26T08:19:32.441Z,16.10
2019-01-26T08:22:20.325Z,15.77
2019-01-26T08:25:08.299Z,15.87
2019-01-26T08:27:56.186Z,15.33
2019-01-26T08:30:44.094Z,15.90
2019-01-26T08:33:32.022Z,15.53
2019-01-26T08:36:20.116Z,17.40
2019-01-26T08:39:07.997Z,16.37
2019-01-26T08:41:57.113Z,15.43
2019-01-26T08:44:44.964Z,15.73
2019-01-26T08:47:32.872Z,15.73
2019-01-26T08:50:21.856Z,16.50
2019-01-26T08:53:09.808Z,14.77
2019-01-26T08:55:57.697Z,16.83
2019-01-26T08:58:45.642Z,14.77
2019-01-26T09:01:33.529Z,15.07
2019-01-26T09:04:16.061Z,16.87
2019-01-26T09:07:06.101Z,16.07
2019-01-26T09:09:54.009Z,16.60
2019-01-26T09:12:41.913Z,16.53
2019-01-26T09:15:29.838Z,17.67
2019-01-26T09:18:17.725Z,15.77
2019-01-26T09:21:05.633Z,18.40
2019-01-26T09:23:53.521Z,16.70
2019-01-26T09:26:41.430Z,17.20
2019-01-26T09:29:29.321Z,17.57
2019-01-26T09:32:17.242Z,15.70
2019-01-26T09:35:05.189Z,17.47
2019-01-26T09:37:53.097Z,18.57
2019-01-26T09:40:41.233Z,18.97
2019-01-26T09:43:29.186Z,19.27
2019-01-26T09:46:17.074Z,17.30
2019-01-26T09:49:04.998Z,18.27
2019-01-26T09:51:52.881Z,18.67
2019-01-26T09:54:40.790Z,16.83
2019-01-26T09:57:28.674Z,17.67
2019-01-26T10:00:16.729Z,14.70
2019-01-26T10:03:04.729Z,15.27
2019-01-26T10:05:44.189Z,15.07
2019-01-26T10:08:32.073Z,13.90
2019-01-26T10:11:19.990Z,13.80
2019-01-26T10:14:07.882Z,12.80
2019-01-26T10:16:55.790Z,12.43
2019-01-26T10:19:43.681Z,13.00
2019-01-26T10:22:31.594Z,13.00
2019-01-26T10:25:19.488Z,11.87
2019-01-26T10:28:07.388Z,11.43
2019-01-26T10:31:14.343Z,12.10
2019-01-26T10:34:02.259Z,13.87
2019-01-26T10:37:09.215Z,12.00
2019-01-26T10:42:51.841Z,11.83
2019-01-26T10:45:39.797Z,12.17
2019-01-26T10:48:27.705Z,11.73
2019-01-26T10:51:15.594Z,12.40
2019-01-26T10:54:03.578Z,11.97
2019-01-26T10:56:51.465Z,11.33
2019-01-26T10:59:39.386Z,10.73
2019-01-26T11:02:27.273Z,11.03
2019-01-26T11:07:59.754Z,10.47
2019-01-26T11:10:47.641Z,10.57
2019-01-26T11:13:35.763Z,11.17
2019-01-26T11:16:23.669Z,11.77
2019-01-26T11:19:11.562Z,11.17
2019-01-26T11:21:59.477Z,10.87
2019-01-26T11:24:47.369Z,10.57
2019-01-26T11:27:35.317Z,11.13
2019-01-26T11:33:32.450Z,9.67
2019-01-26T11:36:20.341Z,9.97
2019-01-26T11:39:09.176Z,10.90
2019-01-26T11:41:57.381Z,11.57
2019-01-26T11:59:44.221Z,9.13
2019-01-26T12:02:37.405Z,10.03
2019-01-26T12:05:44.379Z,10.10
2019-01-26T12:23:49.274Z,9.70
2019-01-26T12:26:37.192Z,9.87
2019-01-26T12:29:25.139Z,9.20
2019-01-26T12:32:13.088Z,8.37
2019-01-26T12:35:01.042Z,9.53
2019-01-26T12:37:48.965Z,9.40
2019-01-26T12:40:36.910Z,9.10
2019-01-26T12:57:46.409Z,8.77
2019-01-26T13:00:34.301Z,10.20
2019-01-26T13:03:22.205Z,10.23
2019-01-26T13:06:10.106Z,10.30
2019-01-26T13:08:58.024Z,9.70
2019-01-26T13:11:36.542Z,9.87
2019-01-26T13:14:24.713Z,9.00
2019-01-26T13:17:12.606Z,9.97
2019-01-26T13:20:00.513Z,9.53
2019-01-26T13:22:48.402Z,9.10
2019-01-26T13:25:36.313Z,10.33
2019-01-26T13:28:24.215Z,10.97
2019-01-26T13:31:12.131Z,10.27
2019-01-26T13:34:00.021Z,9.77
2019-01-26T13:36:47.935Z,7.73
2019-01-26T13:39:35.838Z,8.47
2019-01-26T13:42:23.753Z,10.37
2019-01-26T13:45:12.253Z,8.40
2019-01-26T13:48:00.166Z,8.40
2019-01-26T13:50:48.074Z,7.50
2019-01-26T14:03:22.025Z,7.60
2019-01-26T14:06:09.952Z,7.80
2019-01-26T14:08:57.833Z,7.93
2019-01-26T14:11:36.586Z,8.70
2019-01-26T14:14:24.478Z,7.80
2019-01-26T14:17:12.388Z,7.47
2019-01-26T14:20:00.559Z,7.53
2019-01-26T14:22:48.462Z,7.73
2019-01-26T14:25:36.346Z,8.47
2019-01-26T14:28:24.260Z,8.00
2019-01-26T14:31:12.142Z,8.23
2019-01-26T14:34:00.104Z,8.47
2019-01-26T14:36:48.025Z,7.87
2019-01-26T14:39:35.929Z,7.57
2019-01-26T14:42:23.809Z,7.87
2019-01-26T14:45:11.997Z,7.07
2019-01-26T14:47:59.882Z,7.70
2019-01-26T14:50:47.785Z,6.67
2019-01-26T14:53:35.674Z,7.27
2019-01-26T14:56:23.577Z,7.33
2019-01-26T14:59:11.453Z,7.00
2019-01-26T15:01:59.366Z,7.30
2019-01-26T15:04:47.247Z,8.10
2019-01-26T15:07:35.176Z,7.80
2019-01-26T15:10:23.056Z,7.77
2019-01-26T15:13:01.709Z,8.07
2019-01-26T15:15:49.589Z,8.47
2019-01-26T15:18:37.766Z,9.67
2019-01-26T15:21:25.657Z,8.57
2019-01-26T15:24:13.628Z,15.73
2019-01-26T15:27:01.504Z,14.40
2019-01-26T15:29:49.411Z,20.80
2019-01-26T15:32:37.302Z,19.07
2019-01-26T15:35:25.219Z,15.60
2019-01-26T15:38:13.094Z,12.40
2019-01-26T15:41:01.089Z,11.90
2019-01-26T15:43:48.977Z,10.93
2019-01-26T15:46:36.886Z,20.27
2019-01-26T15:49:24.785Z,11.93
2019-01-26T15:52:12.685Z,10.73
2019-01-26T15:55:00.572Z,10.17
2019-01-26T15:57:48.481Z,11.67
2019-01-26T16:00:37.713Z,11.07
2019-01-26T16:03:25.621Z,10.43
2019-01-26T16:06:13.517Z,11.90
2019-01-26T16:09:01.454Z,10.43
2019-01-26T16:11:49.341Z,9.27
2019-01-26T16:14:29.788Z,9.57
2019-01-26T16:17:08.477Z,9.50
2019-01-26T16:19:56.396Z,8.97
2019-01-26T16:22:44.277Z,8.80
2019-01-26T16:25:32.188Z,7.30
2019-01-26T16:28:20.074Z,8.00
2019-01-26T16:31:08.353Z,7.63
2019-01-26T16:33:56.266Z,11.50
2019-01-26T16:36:44.182Z,7.20
2019-01-26T16:39:32.071Z,9.10
2019-01-26T16:42:19.989Z,8.53
2019-01-26T16:45:09.645Z,8.03
2019-01-26T16:47:57.554Z,7.87
2019-01-26T16:50:45.445Z,7.07
2019-01-26T16:53:33.353Z,8.03
2019-01-26T16:56:21.245Z,7.47
2019-01-26T16:59:09.154Z,10.20
2019-01-26T17:01:57.051Z,9.93
2019-01-26T17:04:44.974Z,8.67
2019-01-26T17:07:33.012Z,9.00
2019-01-26T17:10:20.908Z,11.00
2019-01-26T17:13:08.450Z,12.43
2019-01-26T17:18:46.248Z,9.53
2019-01-26T17:21:34.251Z,9.70
2019-01-26T17:24:22.138Z,10.57
2019-01-26T17:27:10.050Z,10.13
2019-01-26T17:29:57.969Z,11.03
2019-01-26T17:32:45.877Z,9.07
2019-01-26T17:35:33.773Z,7.93
2019-01-26T17:38:21.670Z,8.40
2019-01-26T17:41:09.552Z,7.87
2019-01-26T17:43:57.502Z,9.53
2019-01-26T17:46:45.429Z,8.80
2019-01-26T17:49:33.360Z,8.67
2019-01-26T17:52:21.246Z,9.00
2019-01-26T17:55:09.486Z,8.90
2019-01-26T17:57:57.462Z,9.03
2019-01-26T18:01:04.444Z,8.73
2019-01-26T18:03:52.326Z,8.87
2019-01-26T18:06:40.254Z,8.70
2019-01-26T18:09:28.169Z,9.00
2019-01-26T18:12:16.077Z,8.97
2019-01-26T18:14:54.634Z,8.43
2019-01-26T18:17:42.542Z,8.57
2019-01-26T18:20:30.425Z,9.47
2019-01-26T18:26:17.837Z,9.90
2019-01-26T18:29:05.721Z,9.33
2019-01-26T18:31:53.639Z,9.20
2019-01-26T18:34:41.529Z,9.53
2019-01-26T18:37:29.446Z,10.00
2019-01-26T18:40:36.642Z,12.97
2019-01-26T18:43:24.638Z,12.07
2019-01-26T18:46:12.573Z,13.20
2019-01-26T18:49:00.496Z,13.80
2019-01-26T18:51:48.365Z,13.27
2019-01-26T18:54:36.457Z,11.47
2019-01-26T18:57:24.329Z,13.17
2019-01-26T19:00:14.058Z,11.43
2019-01-26T19:03:21.245Z,12.30
2019-01-26T19:06:09.276Z,12.37
2019-01-26T19:08:57.161Z,11.50
2019-01-26T19:11:45.071Z,10.57
2019-01-26T19:14:33.134Z,10.57
2019-01-26T19:17:11.649Z,11.80
2019-01-26T19:19:59.546Z,10.43
2019-01-26T19:22:47.454Z,11.70
2019-01-26T19:25:35.345Z,10.17
2019-01-26T19:28:23.249Z,11.20
2019-01-26T19:34:18.194Z,10.10
2019-01-26T19:37:09.322Z,9.37
2019-01-26T19:39:55.787Z,9.70
2019-01-26T19:42:43.679Z,10.23
2019-01-26T19:45:31.589Z,9.30
2019-01-26T19:48:19.875Z,9.33
2019-01-26T19:51:10.008Z,9.63
2019-01-26T19:53:58.896Z,10.00
2019-01-26T19:56:46.854Z,10.23
2019-01-26T19:59:34.746Z,9.90
2019-01-26T20:02:22.917Z,9.80
2019-01-26T20:05:11.277Z,9.90
2019-01-26T20:07:59.188Z,10.13
2019-01-26T20:10:47.073Z,12.27
2019-01-26T20:13:34.985Z,12.53
2019-01-26T20:16:23.141Z,14.40
2019-01-26T20:19:01.806Z,11.20
2019-01-26T20:21:49.691Z,9.03
2019-01-26T20:24:37.611Z,9.90
2019-01-26T20:27:25.488Z,8.10
2019-01-26T20:30:17.929Z,9.03
2019-01-26T20:33:05.813Z,9.40
2019-01-26T20:35:53.747Z,9.60
2019-01-26T20:38:41.617Z,9.13
2019-01-26T20:41:29.537Z,10.27
2019-01-26T20:44:17.426Z,10.97
2019-01-26T20:52:52.139Z,9.40
2019-01-26T20:55:40.010Z,8.63
2019-01-26T20:58:28.201Z,10.20
2019-01-26T21:01:16.398Z,9.00
2019-01-26T21:04:04.321Z,8.63
2019-01-26T21:06:52.212Z,8.17
2019-01-26T21:09:40.122Z,8.67
2019-01-26T21:12:28.010Z,8.40
2019-01-26T21:15:15.924Z,8.10
2019-01-26T21:21:01.542Z,8.37
2019-01-26T21:23:49.429Z,8.43
2019-01-26T21:26:37.337Z,9.33
2019-01-26T21:29:25.226Z,9.63
2019-01-26T21:32:13.291Z,8.97
2019-01-26T21:35:01.169Z,8.23
2019-01-26T21:37:49.078Z,7.07
2019-01-26T21:40:37.244Z,7.97
2019-01-26T21:43:25.154Z,7.77
2019-01-26T21:46:13.038Z,8.40
2019-01-26T21:49:00.997Z,7.83
2019-01-26T21:51:48.876Z,7.87
2019-01-26T21:54:37.370Z,7.70
2019-01-26T21:57:25.245Z,7.60
2019-01-26T22:00:23.223Z,6.33
2019-01-26T22:03:11.101Z,6.80
2019-01-26T22:05:59.266Z,8.00
2019-01-26T22:08:47.153Z,7.50
2019-01-26T22:11:35.066Z,7.50
2019-01-26T22:14:22.954Z,7.07
2019-01-26T22:17:10.870Z,7.27
2019-01-26T22:19:58.753Z,7.63
2019-01-26T22:22:37.782Z,7.10
2019-01-26T22:25:26.016Z,7.53
2019-01-26T22:28:13.932Z,6.90
2019-01-26T22:31:01.814Z,7.07
2019-01-26T22:33:49.966Z,7.83
2019-01-26T22:36:37.854Z,7.23
2019-01-26T22:39:25.781Z,6.80
2019-01-26T22:42:13.675Z,6.83
2019-01-26T22:45:01.602Z,7.37
2019-01-26T22:47:49.489Z,6.80
2019-01-26T22:50:37.449Z,7.27
2019-01-26T22:53:25.328Z,7.53
2019-01-26T22:56:13.237Z,7.17
2019-01-26T22:59:01.117Z,6.63
